Time;durP1;ratioP1;P1;durP2;ratioP2;P2;SDS_P1;SDS_P2;PMS_P1;PMS_P2;Temp;Humidity;BMP_temperature;BMP_pressure;BME280_temperature;BME280_humidity;BME280_pressure;Samples;Min_cycle;Max_cycle;Signal;HPM_P1;HPM_P2
2023/05/06 00:00:57;;;;;;;34.05;9.75;;;11.70;99.90;;;;;;5002179;28;20105;-64
2023/05/06 00:03:23;;;;;;;33.33;9.82;;;11.70;99.90;;;;;;5002740;28;20018;-65
2023/05/06 00:05:49;;;;;;;33.40;10.15;;;11.70;99.90;;;;;;5005307;28;20026;-64
2023/05/06 00:08:15;;;;;;;23.73;9.93;;;11.70;99.90;;;;;;4996491;28;20539;-67
2023/05/06 00:10:40;;;;;;;19.23;9.13;;;11.70;99.90;;;;;;5003682;28;20068;-67
2023/05/06 00:13:07;;;;;;;33.78;10.32;;;11.70;99.90;;;;;;5006010;28;20042;-65
2023/05/06 00:15:33;;;;;;;26.35;10.88;;;11.60;99.90;;;;;;5000369;28;20116;-64
2023/05/06 00:17:59;;;;;;;33.42;11.07;;;11.60;99.90;;;;;;5001812;28;20041;-65
2023/05/06 00:20:24;;;;;;;24.92;11.05;;;11.60;99.90;;;;;;5000468;28;20025;-67
2023/05/06 00:22:50;;;;;;;32.08;12.75;;;11.60;99.90;;;;;;4999911;28;20408;-65
2023/05/06 00:25:15;;;;;;;35.80;11.38;;;11.60;99.90;;;;;;4999565;28;20022;-64
2023/05/06 00:27:41;;;;;;;31.25;11.32;;;11.60;99.90;;;;;;5001259;28;20111;-67
2023/05/06 00:30:07;;;;;;;37.38;10.68;;;11.60;99.90;;;;;;4998771;28;20732;-65
2023/05/06 00:32:33;;;;;;;25.80;11.30;;;11.60;99.90;;;;;;5002823;28;20034;-65
2023/05/06 00:34:58;;;;;;;18.90;10.60;;;11.60;99.90;;;;;;4996761;28;20081;-65
2023/05/06 00:37:24;;;;;;;32.13;9.57;;;11.60;99.90;;;;;;4998733;28;20030;-67
2023/05/06 00:39:49;;;;;;;30.10;10.25;;;11.70;99.90;;;;;;4986299;28;20403;-64
2023/05/06 00:42:15;;;;;;;27.35;11.57;;;11.70;99.90;;;;;;5001528;28;20117;-66
2023/05/06 00:44:40;;;;;;;22.90;10.77;;;11.70;99.90;;;;;;4997871;28;20029;-66
2023/05/06 00:47:07;;;;;;;46.17;9.68;;;11.70;99.90;;;;;;4998863;28;20647;-65
2023/05/06 00:49:33;;;;;;;60.13;11.13;;;11.70;99.90;;;;;;5006889;28;20032;-65
2023/05/06 00:52:00;;;;;;;36.10;9.30;;;11.70;99.90;;;;;;5004626;28;20050;-65
2023/05/06 00:54:26;;;;;;;37.10;11.00;;;11.70;99.90;;;;;;5002272;28;20034;-64
2023/05/06 00:56:52;;;;;;;48.70;10.95;;;11.70;99.90;;;;;;4997000;28;20041;-65
2023/05/06 00:59:18;;;;;;;40.38;10.88;;;11.70;99.90;;;;;;4997531;28;20026;-66
2023/05/06 01:01:43;;;;;;;29.10;10.18;;;11.70;99.90;;;;;;4995030;28;20092;-66
2023/05/06 01:04:09;;;;;;;34.80;11.75;;;11.70;99.90;;;;;;4996778;28;20635;-65
2023/05/06 01:06:44;;;;;;;33.33;10.98;;;11.70;99.90;;;;;;4993896;28;20105;-64
2023/05/06 01:09:28;;;;;;;61.38;12.38;;;11.70;99.90;;;;;;4994661;28;20480;-66
2023/05/06 01:12:02;;;;;;;43.85;13.18;;;11.70;99.90;;;;;;4993907;28;20038;-65
2023/05/06 01:14:54;;;;;;;52.50;13.25;;;11.70;99.90;;;;;;4994808;28;20108;-66
2023/05/06 01:17:24;;;;;;;75.18;14.70;;;11.80;99.90;;;;;;4997015;28;20875;-67
2023/05/06 01:19:52;;;;;;;70.63;15.15;;;11.80;99.90;;;;;;4995358;28;20037;-66
2023/05/06 01:22:18;;;;;;;93.40;14.52;;;11.70;99.90;;;;;;4994836;28;20384;-65
2023/05/06 01:24:45;;;;;;;93.60;14.52;;;11.60;99.90;;;;;;4995591;28;20072;-66
2023/05/06 01:27:12;;;;;;;53.80;14.65;;;11.70;99.90;;;;;;4993932;28;20124;-64
2023/05/06 01:29:41;;;;;;;55.78;14.00;;;11.70;99.90;;;;;;4994975;28;20073;-65
2023/05/06 01:32:20;;;;;;;45.22;13.85;;;11.60;99.90;;;;;;4999684;28;20108;-65
2023/05/06 01:34:58;;;;;;;65.75;13.20;;;11.60;99.90;;;;;;4997397;28;20041;-65
2023/05/06 01:37:37;;;;;;;69.70;16.83;;;11.70;99.90;;;;;;4998066;28;20049;-66
2023/05/06 01:40:04;;;;;;;62.47;13.93;;;11.60;99.90;;;;;;4982415;28;20086;-65
2023/05/06 01:42:32;;;;;;;113.40;14.50;;;11.70;99.90;;;;;;4999289;28;20037;-63
2023/05/06 01:45:00;;;;;;;46.33;13.48;;;11.60;99.90;;;;;;4998124;28;20120;-63
2023/05/06 01:47:26;;;;;;;80.93;14.90;;;11.60;99.90;;;;;;4994215;28;20177;-66
2023/05/06 01:49:52;;;;;;;115.03;14.70;;;11.50;99.90;;;;;;4996461;28;20029;-64
2023/05/06 01:52:19;;;;;;;102.63;13.73;;;11.50;99.90;;;;;;4999351;28;20037;-67
2023/05/06 01:54:45;;;;;;;47.97;14.00;;;11.50;99.90;;;;;;5000942;28;20026;-66
2023/05/06 01:57:10;;;;;;;55.13;13.32;;;11.50;99.90;;;;;;4998899;28;20064;-64
2023/05/06 01:59:36;;;;;;;105.20;14.02;;;11.50;99.90;;;;;;4998758;28;20122;-66
2023/05/06 02:02:01;;;;;;;66.15;14.02;;;11.50;99.90;;;;;;4999039;28;20014;-65
2023/05/06 02:04:27;;;;;;;51.78;13.63;;;11.50;99.90;;;;;;4998918;28;20119;-66
2023/05/06 02:06:53;;;;;;;148.23;13.90;;;11.50;99.90;;;;;;5000414;28;20061;-65
2023/05/06 02:09:18;;;;;;;49.60;12.32;;;11.50;99.90;;;;;;4981976;28;20064;-65
2023/05/06 02:11:45;;;;;;;53.15;12.05;;;11.50;99.90;;;;;;4998212;28;22084;-64
2023/05/06 02:14:10;;;;;;;122.15;13.50;;;11.50;99.90;;;;;;4999769;28;20033;-64
2023/05/06 02:16:36;;;;;;;111.10;14.65;;;11.50;99.90;;;;;;4998180;28;20538;-65
2023/05/06 02:19:01;;;;;;;122.00;14.18;;;11.50;99.90;;;;;;4999874;28;20064;-64
2023/05/06 02:21:27;;;;;;;76.95;13.02;;;11.40;99.90;;;;;;4998172;28;20443;-65
2023/05/06 02:23:53;;;;;;;150.35;14.15;;;11.40;99.90;;;;;;5001932;28;20030;-62
2023/05/06 02:26:18;;;;;;;64.13;13.68;;;11.40;99.90;;;;;;5003410;28;20531;-64
2023/05/06 02:28:44;;;;;;;107.38;15.90;;;11.40;99.90;;;;;;5003614;28;20030;-63
2023/05/06 02:31:13;;;;;;;84.13;13.45;;;11.40;99.90;;;;;;5002754;28;20048;-66
2023/05/06 02:33:38;;;;;;;83.20;14.30;;;11.30;99.90;;;;;;4999345;28;20066;-66
2023/05/06 02:36:04;;;;;;;61.33;12.60;;;11.30;99.90;;;;;;5008131;28;20490;-64
2023/05/06 02:38:30;;;;;;;120.78;13.13;;;11.30;99.90;;;;;;4986541;28;20034;-65
2023/05/06 02:40:56;;;;;;;53.20;12.95;;;11.20;99.90;;;;;;5002994;28;20506;-65
2023/05/06 02:43:21;;;;;;;64.88;12.75;;;11.20;99.90;;;;;;5001567;28;20018;-65
2023/05/06 02:45:47;;;;;;;56.85;15.05;;;11.20;99.90;;;;;;5003005;28;20030;-65
2023/05/06 02:48:13;;;;;;;113.30;13.77;;;11.30;99.90;;;;;;5000725;28;20117;-64
2023/05/06 02:50:38;;;;;;;67.00;12.23;;;11.20;99.90;;;;;;5001843;28;20029;-65
2023/05/06 02:53:04;;;;;;;46.75;12.05;;;11.20;99.90;;;;;;5002976;28;20132;-65
2023/05/06 02:55:29;;;;;;;52.38;12.82;;;11.20;99.90;;;;;;5002200;28;21573;-63
2023/05/06 02:57:55;;;;;;;45.30;11.90;;;11.20;99.90;;;;;;5003513;28;20109;-65
2023/05/06 03:00:21;;;;;;;55.83;11.98;;;11.20;99.90;;;;;;5000593;28;20032;-66
2023/05/06 03:02:46;;;;;;;32.75;12.73;;;11.20;99.90;;;;;;4999873;28;20018;-65
2023/05/06 03:05:12;;;;;;;95.55;11.85;;;11.20;99.90;;;;;;5001307;28;20030;-65
2023/05/06 03:07:38;;;;;;;129.57;12.35;;;11.20;99.90;;;;;;4999786;28;20528;-66
2023/05/06 03:10:04;;;;;;;80.63;12.05;;;11.10;99.90;;;;;;5004162;28;20030;-65
2023/05/06 03:12:29;;;;;;;64.10;11.77;;;11.10;99.90;;;;;;5002586;28;20546;-65
2023/05/06 03:14:55;;;;;;;65.57;12.02;;;11.00;99.90;;;;;;4999081;28;20037;-65
2023/05/06 03:17:20;;;;;;;90.82;11.55;;;11.00;99.90;;;;;;5004565;28;20491;-67
2023/05/06 03:19:48;;;;;;;36.28;10.75;;;11.00;99.90;;;;;;5000440;28;22134;-66
2023/05/06 03:22:13;;;;;;;42.42;11.05;;;11.00;99.90;;;;;;5027475;22;20040;-65
2023/05/06 03:24:39;;;;;;;48.92;10.30;;;10.90;99.90;;;;;;5024427;28;20025;-66
2023/05/06 03:27:05;;;;;;;61.70;10.50;;;10.90;99.90;;;;;;5029461;28;20017;-66
2023/05/06 03:29:30;;;;;;;35.70;9.27;;;10.90;99.90;;;;;;5026570;28;20065;-69
2023/05/06 03:31:56;;;;;;;103.40;10.25;;;10.80;99.90;;;;;;5027827;28;20025;-68
2023/05/06 03:34:21;;;;;;;49.65;9.55;;;10.70;99.90;;;;;;5025896;28;20104;-65
2023/05/06 03:36:47;;;;;;;38.70;9.77;;;10.70;99.90;;;;;;5025976;28;20487;-69
2023/05/06 03:39:13;;;;;;;46.95;9.25;;;10.70;99.90;;;;;;5012669;28;20092;-66
2023/05/06 03:41:38;;;;;;;35.03;9.57;;;10.60;99.90;;;;;;5030714;28;20025;-64
2023/05/06 03:44:04;;;;;;;35.58;8.93;;;10.70;99.90;;;;;;5024903;28;20551;-66
2023/05/06 03:46:30;;;;;;;63.13;9.35;;;10.70;99.90;;;;;;5025969;28;20079;-68
2023/05/06 03:48:57;;;;;;;40.10;8.55;;;10.60;99.90;;;;;;5026579;28;20033;-67
2023/05/06 03:51:22;;;;;;;29.65;9.32;;;10.60;99.90;;;;;;5024286;28;20032;-65
2023/05/06 03:53:48;;;;;;;28.98;9.10;;;10.60;99.90;;;;;;5025968;28;20483;-66
2023/05/06 03:56:16;;;;;;;54.25;8.95;;;10.60;99.90;;;;;;5029478;28;20025;-68
2023/05/06 03:58:42;;;;;;;48.22;9.45;;;10.60;99.90;;;;;;5028721;28;20124;-65
2023/05/06 04:01:08;;;;;;;41.83;9.98;;;10.60;99.90;;;;;;5028284;28;20585;-65
2023/05/06 04:03:33;;;;;;;49.15;8.48;;;10.50;99.90;;;;;;5028427;28;20042;-64
2023/05/06 04:05:59;;;;;;;43.33;8.48;;;10.50;99.90;;;;;;5029442;28;20021;-66
2023/05/06 04:08:24;;;;;;;116.93;9.52;;;10.50;99.90;;;;;;5027624;28;20049;-64
2023/05/06 04:10:50;;;;;;;88.90;7.20;;;10.50;99.90;;;;;;5013403;28;20657;-67
2023/05/06 04:13:16;;;;;;;34.33;8.07;;;10.50;99.90;;;;;;5027031;28;20035;-67
2023/05/06 04:15:42;;;;;;;60.22;9.55;;;10.50;99.90;;;;;;5025834;28;20162;-66
2023/05/06 04:18:07;;;;;;;31.83;7.32;;;10.40;99.90;;;;;;5026628;28;20067;-65
2023/05/06 04:20:33;;;;;;;42.97;7.28;;;10.50;99.90;;;;;;5024601;28;20034;-68
2023/05/06 04:22:59;;;;;;;45.13;6.80;;;10.50;99.90;;;;;;5031356;28;20498;-68
2023/05/06 04:25:24;;;;;;;30.15;7.57;;;10.50;99.90;;;;;;5027193;28;20021;-64
2023/05/06 04:27:50;;;;;;;57.05;7.88;;;10.50;99.90;;;;;;5028713;28;20115;-65
2023/05/06 04:30:16;;;;;;;92.55;7.57;;;10.60;99.90;;;;;;5026668;28;20748;-66
2023/05/06 04:32:42;;;;;;;109.75;9.77;;;10.60;99.90;;;;;;5025529;28;20029;-66
2023/05/06 04:35:08;;;;;;;17.80;6.13;;;10.50;99.90;;;;;;5026618;28;20494;-65
2023/05/06 04:37:33;;;;;;;20.00;5.57;;;10.60;99.90;;;;;;5029836;28;20021;-70
2023/05/06 04:40:01;;;;;;;45.03;6.90;;;10.60;99.90;;;;;;5011142;28;20045;-68
2023/05/06 04:42:26;;;;;;;29.45;5.70;;;10.60;99.90;;;;;;5027023;28;20156;-65
2023/05/06 04:44:52;;;;;;;88.88;8.75;;;10.70;99.90;;;;;;5030038;28;20465;-65
2023/05/06 04:47:17;;;;;;;39.15;6.35;;;10.70;99.90;;;;;;5028431;28;20490;-66
2023/05/06 04:49:43;;;;;;;29.85;5.93;;;10.80;99.90;;;;;;5029043;28;20069;-67
2023/05/06 04:52:08;;;;;;;58.97;6.75;;;10.80;99.90;;;;;;5030753;28;20398;-69
2023/05/06 04:54:34;;;;;;;72.63;6.43;;;10.80;99.90;;;;;;5026947;28;20034;-67
2023/05/06 04:56:59;;;;;;;20.77;5.15;;;10.90;99.90;;;;;;5031220;28;20059;-67
2023/05/06 04:59:25;;;;;;;26.35;5.97;;;11.00;99.90;;;;;;5010774;28;20021;-67
2023/05/06 05:01:51;;;;;;;45.30;5.60;;;11.10;99.90;;;;;;5025922;28;20475;-67
2023/05/06 05:04:16;;;;;;;66.53;4.93;;;11.20;99.90;;;;;;5022745;28;20553;-66
2023/05/06 05:06:42;;;;;;;73.90;5.40;;;11.20;99.90;;;;;;5022601;28;20934;-65
2023/05/06 05:09:09;;;;;;;42.50;6.88;;;11.30;99.90;;;;;;5020756;28;20055;-66
2023/05/06 05:11:37;;;;;;;25.65;5.05;;;11.50;99.90;;;;;;5018033;28;21366;-66
2023/05/06 05:14:02;;;;;;;29.15;4.88;;;11.60;99.90;;;;;;5016292;28;20046;-67
2023/05/06 05:16:28;;;;;;;32.58;5.22;;;11.80;99.90;;;;;;5018874;28;20035;-67
2023/05/06 05:18:54;;;;;;;40.08;4.50;;;11.90;99.90;;;;;;5017918;28;20919;-67
2023/05/06 05:21:19;;;;;;;28.70;4.18;;;12.20;99.90;;;;;;5018549;28;20410;-67
2023/05/06 05:23:45;;;;;;;41.28;4.97;;;12.40;99.90;;;;;;5017492;28;20037;-66
2023/05/06 05:26:11;;;;;;;57.80;4.32;;;12.50;99.90;;;;;;5017155;28;20036;-66
2023/05/06 05:28:37;;;;;;;50.15;4.15;;;12.80;99.90;;;;;;5019100;28;20032;-66
2023/05/06 05:31:04;;;;;;;52.35;3.60;;;13.00;99.90;;;;;;5019233;28;20403;-68
2023/05/06 05:33:29;;;;;;;47.55;4.20;;;13.20;99.90;;;;;;5016578;28;20033;-66
2023/05/06 05:35:56;;;;;;;34.60;3.90;;;13.40;99.90;;;;;;5016016;28;20478;-67
2023/05/06 05:38:22;;;;;;;8.52;3.80;;;13.70;99.90;;;;;;5017941;28;20063;-67
2023/05/06 05:40:47;;;;;;;5.25;3.08;;;14.30;99.90;;;;;;5009579;28;20049;-67
2023/05/06 05:43:13;;;;;;;7.70;2.53;;;14.30;99.90;;;;;;5023433;28;20033;-67
2023/05/06 05:45:39;;;;;;;22.95;3.42;;;14.20;99.90;;;;;;5025675;28;20433;-67
2023/05/06 05:48:04;;;;;;;8.77;3.72;;;14.50;99.90;;;;;;5025652;28;20041;-66
2023/05/06 05:50:30;;;;;;;14.10;3.70;;;14.70;99.90;;;;;;5028058;28;20487;-68
2023/05/06 05:52:55;;;;;;;16.60;3.92;;;15.30;99.90;;;;;;5028175;28;20029;-67
2023/05/06 05:55:21;;;;;;;5.28;3.50;;;15.20;99.90;;;;;;5026773;28;20032;-67
2023/05/06 05:57:47;;;;;;;28.95;4.03;;;15.60;99.90;;;;;;5029280;28;20041;-68
2023/05/06 06:00:13;;;;;;;15.75;4.20;;;15.50;99.90;;;;;;5027645;28;20401;-67
2023/05/06 06:02:38;;;;;;;9.25;3.25;;;15.80;99.90;;;;;;5031527;28;20036;-68
2023/05/06 06:05:04;;;;;;;10.73;4.20;;;16.30;99.90;;;;;;5031156;28;20029;-67
2023/05/06 06:07:30;;;;;;;10.23;3.35;;;16.90;99.90;;;;;;5030753;28;20036;-68
2023/05/06 06:09:55;;;;;;;9.35;3.15;;;17.50;99.90;;;;;;5030076;28;20734;-68
2023/05/06 06:12:21;;;;;;;25.17;3.30;;;17.50;99.90;;;;;;5031821;28;20113;-67
2023/05/06 06:14:47;;;;;;;26.58;3.45;;;17.10;99.90;;;;;;5027691;28;20037;-66
2023/05/06 06:17:14;;;;;;;36.38;3.58;;;16.70;99.90;;;;;;5029927;28;20028;-67
2023/05/06 06:19:39;;;;;;;15.27;3.00;;;16.90;99.90;;;;;;5030035;28;20029;-68
2023/05/06 06:22:05;;;;;;;4.30;3.30;;;17.00;99.90;;;;;;5032815;28;20037;-69
2023/05/06 06:24:33;;;;;;;5.68;3.20;;;17.60;99.90;;;;;;5032302;28;20124;-67
2023/05/06 06:27:00;;;;;;;9.73;3.58;;;17.60;99.90;;;;;;5027932;28;20033;-68
2023/05/06 06:29:26;;;;;;;4.65;3.40;;;17.90;99.90;;;;;;5027780;28;20029;-67
2023/05/06 06:31:51;;;;;;;7.72;3.92;;;18.10;99.90;;;;;;5023552;28;20033;-66
2023/05/06 06:34:17;;;;;;;4.90;3.60;;;19.00;99.90;;;;;;5030223;28;20029;-67
2023/05/06 06:36:44;;;;;;;4.15;3.35;;;18.80;99.90;;;;;;5028564;28;20045;-66
2023/05/06 06:39:10;;;;;;;3.97;3.33;;;19.00;99.90;;;;;;5031016;28;20026;-66
2023/05/06 06:41:36;;;;;;;4.00;3.20;;;19.60;99.90;;;;;;5015695;28;20050;-65
2023/05/06 06:44:02;;;;;;;4.65;3.30;;;21.00;99.90;;;;;;5025729;28;20044;-67
2023/05/06 06:46:27;;;;;;;4.55;3.38;;;21.40;99.90;;;;;;5025838;28;20034;-66
2023/05/06 06:48:53;;;;;;;3.50;2.83;;;21.00;99.90;;;;;;5025225;28;20640;-66
2023/05/06 06:51:19;;;;;;;4.60;3.50;;;21.50;98.30;;;;;;5032385;28;20039;-66
2023/05/06 06:53:47;;;;;;;5.82;3.47;;;21.70;97.80;;;;;;5031271;28;20025;-66
2023/05/06 06:56:12;;;;;;;3.65;2.78;;;21.50;99.20;;;;;;5030195;28;20021;-68
2023/05/06 06:58:38;;;;;;;4.38;3.30;;;22.20;98.70;;;;;;5029300;28;20037;-66
2023/05/06 07:01:04;;;;;;;4.07;3.10;;;22.10;97.50;;;;;;5024940;28;20498;-67
2023/05/06 07:03:29;;;;;;;3.95;3.15;;;21.70;97.20;;;;;;5010878;28;20026;-65
2023/05/06 07:05:55;;;;;;;11.82;6.13;;;22.00;98.40;;;;;;5027225;28;20671;-66
2023/05/06 07:08:21;;;;;;;4.45;3.72;;;21.80;98.90;;;;;;5027249;28;22406;-66
2023/05/06 07:10:47;;;;;;;9.85;6.72;;;22.60;96.30;;;;;;5027443;28;20128;-66
2023/05/06 07:13:13;;;;;;;14.15;8.98;;;23.00;97.40;;;;;;5024684;28;20035;-67
2023/05/06 07:15:39;;;;;;;6.05;4.07;;;23.30;96.40;;;;;;5025919;28;20029;-67
2023/05/06 07:18:05;;;;;;;3.67;2.40;;;23.40;94.70;;;;;;5027894;28;20045;-67
2023/05/06 07:20:31;;;;;;;4.30;2.72;;;23.60;95.30;;;;;;5028751;28;20029;-66
2023/05/06 07:22:56;;;;;;;3.22;2.13;;;23.90;93.50;;;;;;5029436;28;20025;-65
2023/05/06 07:25:22;;;;;;;3.88;2.13;;;24.80;93.10;;;;;;5026650;28;20025;-66
2023/05/06 07:27:48;;;;;;;3.65;2.20;;;26.40;89.20;;;;;;5030447;28;20043;-67
2023/05/06 07:30:14;;;;;;;4.60;1.88;;;26.00;89.60;;;;;;5024346;28;20022;-66
2023/05/06 07:32:40;;;;;;;2.35;1.88;;;26.50;85.90;;;;;;5029864;28;20021;-68
2023/05/06 07:35:06;;;;;;;1.80;1.58;;;27.30;85.70;;;;;;5029106;28;20028;-66
2023/05/06 07:37:32;;;;;;;2.45;2.10;;;26.60;84.30;;;;;;5024931;28;20120;-66
2023/05/06 07:39:57;;;;;;;4.05;2.10;;;26.10;86.80;;;;;;5028010;28;20035;-67
2023/05/06 07:42:23;;;;;;;3.33;1.77;;;25.80;84.70;;;;;;5011376;28;20437;-66
2023/05/06 07:44:49;;;;;;;2.47;1.80;;;25.70;82.70;;;;;;5024941;28;20076;-68
2023/05/06 07:47:30;;;;;;;2.25;1.60;;;26.00;85.20;;;;;;5029700;28;20033;-67
2023/05/06 07:49:55;;;;;;;4.63;2.38;;;26.20;82.90;;;;;;5030837;28;20021;-67
2023/05/06 07:52:22;;;;;;;2.22;1.85;;;26.40;84.00;;;;;;5028258;28;20380;-66
2023/05/06 07:54:48;;;;;;;2.13;1.90;;;26.20;84.00;;;;;;5028919;28;20052;-66
2023/05/06 07:57:14;;;;;;;1.60;1.50;;;26.30;83.90;;;;;;5028538;28;20028;-67
2023/05/06 07:59:41;;;;;;;2.47;1.63;;;27.10;82.10;;;;;;5029010;28;20048;-67
2023/05/06 08:02:06;;;;;;;1.83;1.60;;;27.50;80.40;;;;;;5031317;28;20025;-66
2023/05/06 08:04:32;;;;;;;3.03;1.33;;;27.50;79.90;;;;;;5026548;28;20033;-66
2023/05/06 08:06:58;;;;;;;1.58;1.38;;;28.30;76.00;;;;;;5025060;28;20025;-66
2023/05/06 08:09:23;;;;;;;1.48;1.20;;;27.20;77.00;;;;;;5026387;28;20073;-67
2023/05/06 08:11:49;;;;;;;2.08;1.33;;;27.40;77.50;;;;;;5022193;28;20089;-67
2023/05/06 08:14:15;;;;;;;3.65;1.48;;;26.80;79.00;;;;;;5026971;28;20087;-67
2023/05/06 08:16:40;;;;;;;1.77;1.38;;;27.40;74.60;;;;;;5024727;28;20037;-66
2023/05/06 08:19:06;;;;;;;2.13;1.30;;;28.10;75.10;;;;;;5028243;28;20136;-66
2023/05/06 08:21:32;;;;;;;3.22;1.15;;;27.20;75.20;;;;;;5031345;28;20017;-66
2023/05/06 08:23:57;;;;;;;2.10;1.52;;;27.40;77.80;;;;;;5026807;28;20032;-67
2023/05/06 08:26:23;;;;;;;3.72;1.55;;;27.50;74.00;;;;;;5008967;28;20017;-67
2023/05/06 08:28:48;;;;;;;1.33;1.02;;;27.10;73.80;;;;;;5024946;28;20037;-68
2023/05/06 08:31:14;;;;;;;3.47;1.40;;;27.10;78.80;;;;;;5026484;28;20111;-66
2023/05/06 08:33:39;;;;;;;4.30;1.50;;;27.90;78.10;;;;;;5027611;28;20029;-67
2023/05/06 08:36:05;;;;;;;3.70;1.25;;;27.50;72.70;;;;;;5030572;28;20029;-66
2023/05/06 08:38:31;;;;;;;6.32;1.45;;;27.10;74.80;;;;;;5027239;28;20037;-67
2023/05/06 08:40:59;;;;;;;2.20;1.67;;;27.30;77.40;;;;;;5014565;28;21270;-67
2023/05/06 08:43:27;;;;;;;3.28;1.90;;;27.30;75.00;;;;;;5030314;28;20031;-66
2023/05/06 08:45:53;;;;;;;3.25;1.52;;;27.20;77.70;;;;;;5032659;28;20117;-67
2023/05/06 08:48:19;;;;;;;3.40;1.80;;;27.70;76.90;;;;;;5024473;28;20038;-67
2023/05/06 08:50:48;;;;;;;2.55;1.40;;;27.80;77.10;;;;;;5026596;28;20040;-67
2023/05/06 08:53:15;;;;;;;3.00;1.63;;;27.80;75.80;;;;;;5029475;28;20029;-67
2023/05/06 08:55:42;;;;;;;5.53;1.80;;;27.50;75.00;;;;;;5029097;28;20433;-67
2023/05/06 08:58:10;;;;;;;3.42;1.88;;;27.00;78.10;;;;;;5024606;28;20060;-66
2023/05/06 09:00:36;;;;;;;3.53;1.63;;;27.50;77.40;;;;;;5030866;28;22171;-67
2023/05/06 09:03:02;;;;;;;3.90;1.60;;;27.40;75.10;;;;;;5029491;28;20038;-66
2023/05/06 09:05:27;;;;;;;4.47;1.52;;;28.20;74.30;;;;;;5030953;28;20121;-67
2023/05/06 09:07:53;;;;;;;2.40;1.33;;;28.70;71.60;;;;;;5030774;28;20494;-68
2023/05/06 09:10:19;;;;;;;2.88;1.60;;;28.20;75.00;;;;;;5027796;28;20036;-67
2023/05/06 09:12:45;;;;;;;1.85;1.38;;;27.90;73.80;;;;;;5031226;28;20017;-67
2023/05/06 09:15:10;;;;;;;2.67;1.70;;;28.20;77.10;;;;;;5031988;28;20044;-67
2023/05/06 09:17:37;;;;;;;2.00;1.10;;;27.50;77.20;;;;;;5027174;28;20052;-67
2023/05/06 09:20:07;;;;;;;1.20;1.05;;;27.50;76.40;;;;;;5026417;28;20021;-66
2023/05/06 09:22:32;;;;;;;4.50;1.98;;;28.30;76.90;;;;;;5029276;28;20036;-67
2023/05/06 09:24:58;;;;;;;2.80;1.55;;;28.40;74.20;;;;;;5027412;28;20021;-66
2023/05/06 09:27:30;;;;;;;2.88;1.40;;;29.10;74.10;;;;;;5030183;28;20021;-66
2023/05/06 09:30:11;;;;;;;2.50;1.10;;;28.20;72.60;;;;;;5027300;28;20036;-68
2023/05/06 09:32:37;;;;;;;5.32;1.40;;;29.40;69.90;;;;;;5025538;28;20407;-67
2023/05/06 09:35:03;;;;;;;1.85;1.00;;;28.60;71.10;;;;;;5028118;28;20017;-67
2023/05/06 09:37:29;;;;;;;2.13;1.20;;;27.70;70.00;;;;;;5028636;28;20040;-67
2023/05/06 09:39:56;;;;;;;2.17;1.20;;;27.30;71.50;;;;;;5029276;28;20529;-66
2023/05/06 09:42:24;;;;;;;1.92;1.17;;;27.80;70.70;;;;;;5003050;28;20499;-67
2023/05/06 09:44:52;;;;;;;2.70;1.30;;;27.40;73.70;;;;;;5029558;28;20053;-68
2023/05/06 09:47:19;;;;;;;4.47;1.23;;;27.50;78.60;;;;;;5026120;28;20026;-67
2023/05/06 09:49:45;;;;;;;3.85;1.38;;;27.60;72.70;;;;;;5027931;28;20137;-67
2023/05/06 09:52:12;;;;;;;3.53;1.55;;;27.10;72.60;;;;;;5023608;28;20061;-67
2023/05/06 09:54:39;;;;;;;3.60;1.38;;;27.60;76.10;;;;;;5030987;28;20057;-67
2023/05/06 09:57:05;;;;;;;1.58;0.88;;;26.50;71.80;;;;;;5030267;28;20033;-68
2023/05/06 09:59:32;;;;;;;1.65;1.27;;;26.00;74.00;;;;;;5027820;28;20734;-66
2023/05/06 10:01:58;;;;;;;3.28;1.20;;;25.30;76.40;;;;;;5026267;28;20457;-66
2023/05/06 10:04:26;;;;;;;3.30;1.02;;;25.30;81.00;;;;;;5027057;28;20468;-66
2023/05/06 10:06:55;;;;;;;1.98;1.20;;;25.10;74.50;;;;;;5029578;28;20021;-66
2023/05/06 10:09:24;;;;;;;2.38;1.10;;;25.20;71.90;;;;;;5026822;28;20026;-65
2023/05/06 10:11:51;;;;;;;1.95;1.00;;;25.10;77.00;;;;;;5028202;28;20029;-67
2023/05/06 10:14:18;;;;;;;2.42;1.05;;;24.80;79.20;;;;;;5029384;28;20423;-65
2023/05/06 10:16:47;;;;;;;1.35;0.85;;;24.80;82.10;;;;;;5032995;28;20131;-66
2023/05/06 10:19:15;;;;;;;3.40;0.80;;;24.70;76.10;;;;;;5030090;28;20021;-64
2023/05/06 10:21:48;;;;;;;1.77;0.90;;;24.30;76.60;;;;;;5026081;28;20061;-66
2023/05/06 10:24:17;;;;;;;2.70;0.95;;;24.80;75.10;;;;;;5034537;23;20049;-64
2023/05/06 10:26:45;;;;;;;3.38;1.40;;;25.00;73.40;;;;;;5012149;28;20061;-64
2023/05/06 10:29:12;;;;;;;2.20;0.85;;;25.10;74.10;;;;;;5008008;28;20049;-64
2023/05/06 10:31:44;;;;;;;2.00;1.30;;;24.80;74.80;;;;;;5007784;28;20033;-64
2023/05/06 10:34:10;;;;;;;4.20;0.80;;;24.60;76.10;;;;;;4993173;28;20442;-64
2023/05/06 10:36:38;;;;;;;1.55;0.90;;;24.50;81.80;;;;;;4987397;28;20117;-64
2023/05/06 10:39:06;;;;;;;1.35;0.70;;;24.40;78.70;;;;;;4988682;28;20058;-63
2023/05/06 10:41:35;;;;;;;3.33;0.60;;;24.20;75.50;;;;;;4973812;28;20038;-63
2023/05/06 10:44:01;;;;;;;4.50;0.80;;;24.40;76.90;;;;;;4985657;28;20033;-63
2023/05/06 10:46:29;;;;;;;2.97;0.90;;;24.80;74.10;;;;;;4994109;28;20034;-63
2023/05/06 10:49:05;;;;;;;6.65;0.70;;;24.70;74.70;;;;;;4990350;28;20045;-63
2023/05/06 10:52:12;;;;;;;3.03;0.50;;;24.70;75.60;;;;;;4994487;28;20029;-64
2023/05/06 10:54:49;;;;;;;1.30;0.70;;;25.00;74.20;;;;;;4990217;28;20041;-64
2023/05/06 10:57:15;;;;;;;1.42;0.73;;;25.10;73.50;;;;;;4991849;28;20057;-64
2023/05/06 10:59:45;;;;;;;1.83;1.35;;;24.90;77.20;;;;;;4992000;28;20868;-62
2023/05/06 11:02:11;;;;;;;2.67;0.82;;;25.10;74.50;;;;;;4990228;28;20584;-63
2023/05/06 11:04:38;;;;;;;0.75;0.50;;;25.00;72.60;;;;;;4990229;28;20026;-64
2023/05/06 11:07:12;;;;;;;2.60;0.80;;;25.20;72.50;;;;;;4992429;28;20468;-64
2023/05/06 11:09:58;;;;;;;1.48;0.75;;;24.60;71.60;;;;;;4988197;28;20131;-64
2023/05/06 11:12:48;;;;;;;1.10;0.80;;;24.50;74.40;;;;;;4991757;28;20084;-63
2023/05/06 11:15:35;;;;;;;1.08;0.63;;;23.90;73.50;;;;;;4984017;28;20136;-64
2023/05/06 11:18:23;;;;;;;2.65;0.85;;;24.40;76.60;;;;;;4989323;28;20026;-64
2023/05/06 11:20:50;;;;;;;2.45;0.75;;;24.50;81.10;;;;;;4993597;28;20022;-65
2023/05/06 11:23:19;;;;;;;1.65;0.57;;;24.90;75.10;;;;;;4988966;28;20463;-63
2023/05/06 11:25:46;;;;;;;0.90;0.63;;;25.10;72.80;;;;;;4988930;28;20026;-64
2023/05/06 11:28:13;;;;;;;3.53;0.82;;;25.10;71.70;;;;;;4991985;28;20113;-64
2023/05/06 11:30:52;;;;;;;2.20;0.65;;;24.80;70.20;;;;;;4991831;28;20072;-64
2023/05/06 11:33:18;;;;;;;2.88;1.00;;;24.40;71.30;;;;;;4986802;28;20049;-65
2023/05/06 11:35:44;;;;;;;1.95;0.70;;;24.00;74.20;;;;;;4990571;28;20598;-63
2023/05/06 11:38:09;;;;;;;2.55;0.80;;;24.10;75.40;;;;;;4988879;28;20058;-63
2023/05/06 11:40:35;;;;;;;2.67;0.77;;;24.10;77.40;;;;;;4990326;28;20015;-64
2023/05/06 11:43:10;;;;;;;1.20;0.68;;;24.50;72.50;;;;;;4975907;28;20134;-64
2023/05/06 11:45:44;;;;;;;1.95;0.60;;;24.40;74.00;;;;;;4991866;28;20026;-65
2023/05/06 11:48:14;;;;;;;1.92;0.63;;;24.80;73.70;;;;;;4988388;28;20042;-64
2023/05/06 11:50:47;;;;;;;2.35;0.95;;;25.00;74.40;;;;;;4988032;28;20030;-64
2023/05/06 11:53:17;;;;;;;3.63;0.90;;;24.70;72.00;;;;;;4984681;28;20510;-64
2023/05/06 11:55:43;;;;;;;2.65;0.77;;;24.10;75.00;;;;;;4990247;28;20407;-64
2023/05/06 11:58:13;;;;;;;3.05;0.50;;;23.80;75.10;;;;;;4987207;28;20084;-65
2023/05/06 12:00:59;;;;;;;3.70;0.60;;;24.20;75.90;;;;;;4989904;28;20029;-64
2023/05/06 12:03:27;;;;;;;2.50;0.60;;;24.70;70.60;;;;;;4989308;28;20019;-63
2023/05/06 12:05:53;;;;;;;2.83;0.90;;;24.80;72.10;;;;;;4994435;28;20023;-63
2023/05/06 12:08:22;;;;;;;2.33;0.80;;;24.90;72.70;;;;;;4993480;28;20177;-64
2023/05/06 12:10:50;;;;;;;2.13;0.88;;;24.90;71.90;;;;;;4996366;28;20038;-63
2023/05/06 12:13:17;;;;;;;1.27;0.55;;;24.50;72.30;;;;;;4987528;28;20795;-65
2023/05/06 12:15:43;;;;;;;2.33;0.60;;;24.40;75.10;;;;;;4989643;28;20489;-64
2023/05/06 12:18:09;;;;;;;1.02;0.57;;;23.90;77.00;;;;;;4989144;28;20053;-63
2023/05/06 12:20:35;;;;;;;1.48;0.60;;;23.90;70.80;;;;;;4987804;28;20053;-64
2023/05/06 12:23:08;;;;;;;1.40;0.60;;;24.10;71.20;;;;;;4992610;28;20053;-65
2023/05/06 12:25:34;;;;;;;5.03;1.00;;;23.70;74.40;;;;;;4987855;28;20030;-64
2023/05/06 12:27:59;;;;;;;1.33;1.02;;;23.70;75.30;;;;;;4993477;28;20042;-64
2023/05/06 12:30:31;;;;;;;2.25;0.68;;;23.70;74.80;;;;;;4977990;28;20041;-64
2023/05/06 12:32:58;;;;;;;1.60;0.47;;;23.70;74.10;;;;;;4987790;28;20116;-64
2023/05/06 12:35:28;;;;;;;2.60;0.60;;;23.60;75.40;;;;;;4982003;28;20030;-64
2023/05/06 12:37:54;;;;;;;0.98;0.60;;;23.50;75.30;;;;;;4991611;28;20732;-64